Harbor Springs, Michigan
Current Conditions -  °F | °C
As of 4:55 AM on Sunday 26 Oct 2014 (Local Time) from KMGN Reporting Station
Clear Clear  
Wind Chill:   Ceiling: Unl
Heat Index:   Visibility: 10mi
Dew Point:   Wind: 13mph
Humidity: 62%   Direction: 290°WNW
Pressure: 29.83"   Gusts: 21mph
Location:  45.43°N, 84.99°W
Report Text: KMGN 260855Z AUTO 29011G18KT 250V310 10SM CLR 08/01 A2983 RMK AO2 T00840015
Loading
Personal Weather Stations






























Interactive Weather Map
Tropical Storm Tracking
New forecast layout! Learn more

10-Day Weather Forecast

Advertisements
Track Severe Weather on mobile